Terminal Aerodrome Forecast
Issued by NWS

Home | Current Version | Previous Version | Text Only | Print | Product List | Glossary On
Versions: 1 2 3 4 5 6 7 8 9 10 11 12 13 14 15 16 17 18 19 20 21 22 23 24 25 26 27 28
000
FTUS43 KDLH 221037 AAE
TAFHIB
TAF AMD
KHIB 221037Z 2211/2306 VRB02KT 2SM BR SCT002
     FM221200 30002KT P6SM SKC
     FM221600 28006KT P6SM SCT050
     FM230100 23006KT P6SM BKN050=

USA.gov is the U.S. government's official web portal to all federal, state and local government web resources and services.